^^

Nearby METAR Reports

METAR (Meteorological Aerodrome Report) are Airport generated local weather condition reports for use, predominantly by pilots, these reports are also used as part of compliment of data sets required for Chatteris Weathers prediction software - WxSim.

EGUN - Mildenhall Raf, United Kingdom
Distance from station: ESE 19mi, 31km
Updated: 18/02/2020 20:55
Mostly cloudy
Mostly cloudy
 Wind from W
Wind: W 13 mph , 20 km/h
Temperature: 6°C
Wind Chill: 2°C
Dew Point: 3°C
Humidity: 81%
Barometer: 1011.9 hPa
Clouds: Mostly cloudy
Visibility: 6 miles , 10 km
Cloud details: Few Clouds 3658 m
Mostly cloudy 3962 m
2020/02/18 20:55 EGUN 182055Z 26011KT 9999 FEW120 BKN130 06/03 A2988 RMK SLP118 WND DATA ESTMD ALSTG ESTMD RVRNO $
EGSC - Cambridge, United Kingdom
Distance from station: SSE 20mi, 32km
Updated: 18/02/2020 17:50
NOT Current
Partly cloudy
Partly cloudy
 Wind from SW
Wind: SW 17 mph , 28 km/h, Gust: 30 mph , 48 km/h
Temperature: 8°C
Wind Chill: 4°C
Dew Point: 4°C
Humidity: 76%
Barometer: 1012 hPa
Clouds: Partly cloudy
Visibility: 6 miles , 10 km
Cloud details: Partly cloudy 823 m
2020/02/18 17:50 EGSC 181750Z 22015G26KT 180V240 9999 SCT027 08/04 Q1012
 
EGUL - Lakenheath Raf, United Kingdom
Distance from station: E 22mi, 36km
Updated: 18/02/2020 20:56
Clear
Clear
 Wind from W
Wind: W 14 mph , 22 km/h
Temperature: 6°C
Wind Chill: 2°C
Dew Point: 3°C
Humidity: 81%
Barometer: 1011.5 hPa
Clouds: Clear
Visibility: 6 miles , 10 km
2020/02/18 20:56 EGUL 182056Z AUTO 26012KT 9999 CLR 06/03 A2987 RMK AO2 SLP119 60000 T00620030 50005 $
EGXT - Wittering Raf, United Kingdom
Distance from station: WNW 24mi, 38km
Updated: 18/02/2020 20:50
Rain, Mostly cloudy
Rain, Mostly cloudy
 Wind from W
Wind: W 22 mph , 35 km/h, Gust: 40 mph , 65 km/h
Temperature: 4°C
Wind Chill: -2°C
Dew Point: 2°C
Humidity: 87%
Barometer: 1012 hPa
Summary: Rain
Clouds: Mostly cloudy
Visibility: 6 miles , 9 km
Cloud details: Few Clouds 457 m
Mostly cloudy 4267 m
2020/02/18 20:50 EGXT 182050Z AUTO 27019G35KT 9000 RA FEW015/// BKN140/// 04/02 Q1012
 
EGYH - Holbeach (aut), United Kingdom
Distance from station: N 27mi, 44km
Updated: 18/02/2020 18:50
NOT Current
Clear
Clear
 Wind from WSW
Wind: WSW 9 mph , 15 km/h
Temperature: 5°C
Wind Chill: 2°C
Dew Point: 4°C
Humidity: 93%
Barometer: 1010 hPa
Summary: Clear
Visibility: greater than 7 miles , 10 km
2020/02/18 18:50 EGYH 181850Z 25008KT CAVOK 05/04 Q1010 RMK BLU
EGSS - Stansted Airport, United Kingdom
Distance from station: SE 11mi, 18km
Updated: 18/02/2020 20:50
Mostly cloudy
Mostly cloudy
 Wind from WSW
Wind: WSW 12 mph , 19 km/h
Temperature: 7°C
Wind Chill: 4°C
Dew Point: 4°C
Humidity: 81%
Barometer: 1013 hPa
Clouds: Mostly cloudy
Visibility: 6 miles , 10 km
Cloud details: Mostly cloudy 671 m
2020/02/18 20:50 EGSS 182050Z AUTO 24010KT 9999 BKN022 07/04 Q1013
 
EGGW - Luton Airport, United Kingdom
Distance from station: WSW 19mi, 31km
Updated: 18/02/2020 20:50
Thunderstorm
Thunderstorm
 Wind from W
Wind: W 20 mph , 31 km/h
Temperature: 5°C
Wind Chill: 0°C
Dew Point: 3°C
Humidity: 87%
Barometer: 1013 hPa
Clouds: Thunderstorm
Visibility: 6 miles , 10 km
Cloud details: Few Clouds 1036 m
2020/02/18 20:50 EGGW 182050Z AUTO 26017KT 9999 FEW034/// //////TCU 05/03 Q1013
EGLL - London/Heathrow, United Kingdom
Distance from station: SSW 41mi, 66km
Updated: 18/02/2020 20:50
Thunderstorm
Thunderstorm
 Wind from W
Wind: W 20 mph , 31 km/h
Temperature: 7°C
Wind Chill: 3°C
Dew Point: 2°C
Humidity: 71%
Barometer: 1015 hPa
Clouds: Thunderstorm
Visibility: 6 miles , 10 km
Cloud details: Few Clouds 1128 m
2020/02/18 20:50 EGLL 182050Z AUTO 26017KT 9999 FEW037/// //////CB 07/02 Q1015 NOSIG
 
EGKK - London/Gatwick A, United Kingdom
Distance from station: S 60mi, 97km
Updated: 18/02/2020 20:50
Partly cloudy
Partly cloudy
 Wind from WSW
Wind: WSW 16 mph , 26 km/h
Temperature: 6°C
Wind Chill: 2°C
Dew Point: 4°C
Humidity: 87%
Barometer: 1015 hPa
Clouds: Partly cloudy
Visibility: 6 miles , 10 km
Cloud details: Few Clouds 549 m
Partly cloudy 762 m
2020/02/18 20:50 EGKK 182050Z 24014KT 9999 FEW018 SCT025 06/04 Q1015
EGUY - Wyton Raf, United Kingdom
Distance from station: SW 11mi, 18km
Updated: 04/10/2015 09:50
NOT Current
Haze, Clear
Haze, Clear
 Wind from SSE
Wind: SSE 2 mph , 4 km/h
Temperature: 11°C
Dew Point: 7°C
Humidity: 77%
Barometer: 1014 hPa
Summary: Haze
Clouds: Clear
Visibility: 4 miles , 6 km
2015/10/04 08:50 EGUY 040850Z 15002KT 6000 HZ SKC 11/07 Q1014 WHT

Met Office METAR data link, decoding METAR data code.